Date,TemperatureHighF,TemperatureAvgF,TemperatureLowF,DewpointHighF,DewpointAvgF,DewpointLowF,HumidityHigh,HumidityAvg,HumidityLow,PressureMaxIn,PressureMinIn,WindSpeedMaxMPH,WindSpeedAvgMPH,GustSpeedMaxMPH,PrecipitationSumIn
2013-2-1,50.7,43.9,37.9,43.4,39.5,31.3,98,86,58,29.23,29.12,8,0,8,0.00
2013-2-2,52.2,44.8,36.5,40.4,34.3,28.7,90,68,47,29.17,29.12,8,0,8,0.00
2013-2-3,47.7,41.4,33.8,43.1,38.0,32.0,98,88,68,29.20,29.09,5,0,5,0.00
2013-2-4,49.3,42.9,37.0,39.8,37.2,33.4,95,81,57,29.12,28.82,4,0,4,0.00
2013-2-5,48.2,42.5,39.6,44.7,40.1,35.8,98,92,69,28.94,28.79,8,0,8,0.00
2013-2-6,48.4,42.7,37.2,43.5,39.2,35.7,98,88,68,29.00,28.73,4,0,4,0.00
2013-2-7,44.6,38.2,32.5,39.3,33.9,28.8,98,86,55,29.00,28.82,6,0,6,0.00
2013-2-8,37.8,34.0,30.0,35.3,31.6,28.5,97,91,80,29.14,29.00,4,0,4,0.00
2013-2-9,41.0,38.2,33.6,38.8,35.7,31.5,97,91,83,29.17,29.09,2,0,2,0.00
2013-2-10,41.9,39.9,38.3,40.0,37.3,33.8,98,91,78,29.23,29.14,4,0,4,0.00
2013-2-11,42.8,39.9,37.4,41.4,37.5,34.6,98,91,80,29.26,29.17,0,0,0,0.00
2013-2-12,48.6,44.9,41.9,47.7,44.0,41.4,98,97,87,29.32,29.23,3,0,3,0.00
2013-2-13,45.7,43.7,41.5,44.2,42.1,40.3,98,94,85,29.35,29.29,4,0,4,0.00
2013-2-14,50.2,43.7,38.1,45.4,39.8,35.5,98,87,57,29.41,29.32,5,0,5,0.00
2013-2-15,59.5,44.0,34.3,45.4,38.1,33.3,98,82,45,29.35,29.06,5,0,5,0.00
2013-2-16,46.6,41.0,36.7,45.3,39.6,34.6,98,95,81,29.14,29.06,4,0,4,0.00
2013-2-17,42.3,37.7,34.2,38.9,34.4,29.4,98,88,70,29.17,28.97,4,0,4,0.00
2013-2-18,39.9,36.2,33.4,32.7,30.6,28.8,85,80,73,28.97,28.61,2,0,2,0.00
2013-2-19,48.7,38.8,33.4,36.3,29.0,21.5,94,70,35,28.88,28.58,7,0,7,0.00
2013-2-20,45.9,39.0,32.5,37.4,33.7,28.8,96,82,56,28.97,28.85,4,0,4,0.00
2013-2-21,40.3,38.6,36.9,39.0,36.7,34.2,98,93,82,29.06,28.97,3,1,3,0.00
2013-2-22,42.6,40.2,35.8,40.3,37.9,34.3,98,92,76,29.06,28.79,8,1,8,0.00
2013-2-23,41.2,36.4,33.8,39.0,35.2,31.9,98,96,79,29.29,28.94,4,1,4,0.00
2013-2-24,46.4,38.9,33.4,39.1,33.6,28.8,98,83,51,29.32,28.97,4,0,4,0.00
2013-2-25,43.5,39.5,36.5,39.8,35.4,27.5,97,86,59,29.23,28.91,13,1,13,0.00
2013-2-26,45.0,39.0,32.5,36.3,31.8,25.0,95,77,49,29.26,29.12,7,0,7,0.00
2013-2-27,50.9,43.5,38.1,40.5,35.4,30.3,91,74,47,29.17,29.09,6,0,6,0.00
2013-2-28,52.0,48.2,42.3,51.4,47.2,39.8,98,96,91,29.32,29.09,4,0,4,0.00